TimeCDT,TemperatureF,Dew PointF,Humidity,Sea Level PressureIn,VisibilityMPH,Wind Direction,Wind SpeedMPH,Gust SpeedMPH,PrecipitationIn,Events,Conditions,WindDirDegrees,DateUTC
12:57 AM,77.0,68.0,74,29.82,10.0,SSE,5.8,-,N/A,,Clear,160,2013-09-01 05:57:00
1:57 AM,75.9,68.0,76,29.82,10.0,SSE,5.8,-,N/A,,Clear,150,2013-09-01 06:57:00
2:57 AM,77.0,68.0,74,29.81,10.0,SSE,5.8,-,N/A,,Clear,160,2013-09-01 07:57:00
3:57 AM,77.0,68.0,74,29.82,10.0,South,4.6,-,N/A,,Clear,170,2013-09-01 08:57:00
4:57 AM,78.1,66.9,68,29.82,10.0,South,4.6,-,N/A,,Clear,180,2013-09-01 09:57:00
5:57 AM,77.0,64.9,66,29.81,10.0,SSW,6.9,-,N/A,,Clear,200,2013-09-01 10:57:00
6:57 AM,78.1,64.9,64,29.83,10.0,SSW,8.1,-,N/A,,Clear,200,2013-09-01 11:57:00
7:57 AM,79.0,64.9,62,29.83,10.0,SSW,8.1,-,N/A,,Clear,200,2013-09-01 12:57:00
8:57 AM,82.0,66.0,58,29.86,10.0,ESE,4.6,-,N/A,,Clear,120,2013-09-01 13:57:00
9:57 AM,82.0,66.9,60,29.88,10.0,ESE,9.2,-,N/A,,Scattered Clouds,120,2013-09-01 14:57:00
10:57 AM,84.9,69.1,59,29.86,10.0,ESE,11.5,-,N/A,,Clear,120,2013-09-01 15:57:00
11:57 AM,84.9,69.1,59,29.88,10.0,NNE,10.4,-,N/A,,Mostly Cloudy,30,2013-09-01 16:57:00
12:57 PM,88.0,69.1,53,29.87,10.0,ESE,6.9,-,N/A,,Clear,110,2013-09-01 17:57:00
1:57 PM,87.1,66.9,51,29.88,10.0,NE,13.8,-,N/A,,Clear,50,2013-09-01 18:57:00
2:57 PM,82.9,68.0,60,29.91,10.0,North,8.1,-,N/A,,Overcast,10,2013-09-01 19:57:00
3:16 PM,82.4,68.0,62,29.96,10.0,North,10.4,-,N/A,Thunderstorm,Thunderstorm,360,2013-09-01 20:16:00
3:51 PM,77.0,69.8,78,29.93,10.0,NNE,9.2,19.6,0.00,Rain,Light Rain,20,2013-09-01 20:51:00
3:57 PM,75.9,68.0,76,29.88,10.0,NNE,8.1,-,0.00,Rain,Light Rain,20,2013-09-01 20:57:00
4:57 PM,77.0,70.0,79,29.82,10.0,SE,9.2,-,0.00,,Clear,140,2013-09-01 21:57:00
5:57 PM,78.1,69.1,74,29.82,10.0,SSW,4.6,-,N/A,,Clear,200,2013-09-01 22:57:00
6:57 PM,77.0,69.1,76,29.84,10.0,Calm,Calm,-,N/A,,Clear,0,2013-09-01 23:57:00
7:57 PM,75.9,70.0,82,29.88,10.0,Calm,Calm,-,N/A,,Clear,0,2013-09-02 00:57:00
8:57 PM,75.0,69.1,82,29.90,10.0,Calm,Calm,-,N/A,,Partly Cloudy,0,2013-09-02 01:57:00
9:57 PM,75.0,68.0,79,29.91,10.0,Calm,Calm,-,N/A,,Scattered Clouds,0,2013-09-02 02:57:00
10:57 PM,73.0,69.1,87,29.91,10.0,Calm,Calm,-,N/A,,Partly Cloudy,0,2013-09-02 03:57:00
11:57 PM,72.0,69.1,91,29.91,10.0,WNW,3.5,-,N/A,,Overcast,290,2013-09-02 04:57:00